LZIB

M. R. Štefánik Airport

Bratislava, Slovakia (Slovak Republic)
METAR LZIB 201900Z 32009KT CAVOK 13/08 Q1025
Observed Flight Rules
Oct-20 @ 19:00 UTC (21 minutes ago) Visual Flight Rules
Wind Visibility Clouds
320° at 9 knots 10,000+ meters
  • Clear skies
Temperatures Readings
Current 13°C / 55°F
Dewpoint 8°C / 46°F
Humidity 72%
Altimeter 30.27" Hg
Pressure 1025 hPa
Elevation 134
METAR LZIB 201900Z 32009KT CAVOK 13/08 Q1025
Observed Flight Rules
Oct-20 @ 19:00 UTC
(21 minutes ago)
VFR
Wind Visibility
320° at 9 knots 10,000+ meters
Clouds
  • Clear skies
Temperature Dewpoint
13°C / 55°F 8°C / 46°F
Humidity Altimeter Pressure
72% 30.27" Hg 1025 hPa